Time;durP1;ratioP1;P1;durP2;ratioP2;P2;SDS_P1;SDS_P2;PMS_P1;PMS_P2;Temp;Humidity;BMP_temperature;BMP_pressure;BME280_temperature;BME280_humidity;BME280_pressure;Samples;Min_cycle;Max_cycle;Signal;HPM_P1;HPM_P2
2021/10/07 00:00:52;;;;;;;12.15;4.28;;;;;;;10.48;90.98;102303.38;5054735;28;20057;-69
2021/10/07 00:03:18;;;;;;;9.70;4.30;;;;;;;10.48;90.88;102309.38;5054822;28;20029;-69
2021/10/07 00:05:43;;;;;;;13.73;4.85;;;;;;;10.52;90.87;102305.50;5036683;28;20025;-68
2021/10/07 00:08:08;;;;;;;12.60;4.78;;;;;;;10.49;90.53;102305.00;5036571;28;20112;-69
2021/10/07 00:10:34;;;;;;;13.25;4.97;;;;;;;10.44;90.28;102302.03;5055115;28;20056;-68
2021/10/07 00:12:59;;;;;;;16.15;4.75;;;;;;;10.41;90.03;102315.25;5054829;28;20060;-69
2021/10/07 00:15:25;;;;;;;6.55;4.07;;;;;;;10.27;90.33;102308.84;5054702;28;20021;-68
2021/10/07 00:17:50;;;;;;;9.75;4.25;;;;;;;10.29;90.57;102315.47;5036866;28;20032;-70
2021/10/07 00:20:16;;;;;;;10.45;4.30;;;;;;;10.24;90.20;102322.84;5037114;28;20029;-69
2021/10/07 00:22:43;;;;;;;10.48;3.65;;;;;;;10.22;90.08;102324.75;5059526;28;20430;-69
2021/10/07 00:25:13;;;;;;;12.95;4.40;;;;;;;10.03;89.80;102317.94;5061390;28;20029;-69
2021/10/07 00:27:39;;;;;;;9.23;3.58;;;;;;;10.05;90.54;102322.97;5044422;28;20050;-69
2021/10/07 00:30:12;;;;;;;8.38;3.78;;;;;;;10.04;90.77;102314.41;5061302;28;20020;-69
2021/10/07 00:32:44;;;;;;;7.47;3.78;;;;;;;10.01;89.57;102316.47;5061566;28;20035;-69
2021/10/07 00:40:04;;;;;;;12.75;4.30;;;;;;;9.88;90.94;102325.38;5060696;28;20025;-69
2021/10/07 00:42:29;;;;;;;6.15;3.65;;;;;;;9.87;90.11;102322.94;5062681;28;20028;-72
2021/10/07 00:44:55;;;;;;;8.70;4.10;;;;;;;9.93;90.37;102323.16;5066432;28;20084;-70
2021/10/07 00:47:20;;;;;;;11.23;4.03;;;;;;;9.98;90.02;102324.50;5067168;28;20078;-69
2021/10/07 00:49:47;;;;;;;9.55;4.00;;;;;;;9.83;89.68;102337.88;5050033;28;20399;-72
2021/10/07 00:52:15;;;;;;;14.32;3.88;;;;;;;9.73;90.16;102331.97;5067499;28;20064;-70
2021/10/07 00:54:41;;;;;;;7.35;3.88;;;;;;;9.63;90.35;102334.59;5050502;28;20063;-69
2021/10/07 00:57:08;;;;;;;9.73;4.45;;;;;;;9.67;90.74;102350.63;5068797;28;20076;-69
2021/10/07 00:59:34;;;;;;;10.45;4.45;;;;;;;9.67;91.09;102350.63;5064197;28;20029;-69
2021/10/07 01:02:06;;;;;;;11.00;4.38;;;;;;;9.63;91.48;102354.44;5055758;28;20449;-69
2021/10/07 01:04:32;;;;;;;12.27;4.20;;;;;;;9.65;91.03;102355.09;5054779;28;20471;-69
2021/10/07 01:06:58;;;;;;;15.48;5.10;;;;;;;9.67;91.31;102353.22;5054684;28;20029;-69
2021/10/07 01:09:23;;;;;;;13.82;5.70;;;;;;;9.54;91.58;102356.09;5036845;28;20029;-70
2021/10/07 01:11:49;;;;;;;10.43;4.75;;;;;;;9.73;91.04;102368.13;5054678;28;20025;-69
2021/10/07 01:14:58;;;;;;;15.57;5.15;;;;;;;9.70;90.94;102358.88;5055286;28;20029;-70
2021/10/07 01:17:29;;;;;;;11.90;6.15;;;;;;;9.70;91.05;102371.00;5054564;28;20502;-69
2021/10/07 01:19:57;;;;;;;39.72;7.03;;;;;;;9.57;91.10;102349.84;5036363;28;20021;-69
2021/10/07 01:22:24;;;;;;;52.08;6.82;;;;;;;9.59;91.53;102364.22;5036302;28;20032;-68
2021/10/07 01:24:50;;;;;;;114.57;7.20;;;;;;;9.55;92.05;102362.91;5053815;28;20025;-69
2021/10/07 01:27:19;;;;;;;151.98;8.93;;;;;;;9.51;92.71;102371.06;5035504;28;20028;-69
2021/10/07 01:29:51;;;;;;;62.03;8.63;;;;;;;9.49;92.01;102369.44;5053568;28;20033;-69
2021/10/07 01:32:16;;;;;;;184.73;9.23;;;;;;;9.47;91.97;102366.19;5052980;28;20025;-69
2021/10/07 01:34:42;;;;;;;135.82;7.25;;;;;;;9.51;92.22;102382.19;5053103;28;20031;-68
2021/10/07 01:37:07;;;;;;;143.40;8.38;;;;;;;9.50;91.87;102383.16;5053012;28;20032;-69
2021/10/07 01:39:32;;;;;;;118.07;6.97;;;;;;;9.48;91.99;102380.69;5035020;28;20032;-69
2021/10/07 01:41:57;;;;;;;75.50;6.10;;;;;;;9.48;92.39;102383.28;5035089;28;20199;-68
2021/10/07 01:44:24;;;;;;;44.33;5.38;;;;;;;9.37;91.54;102392.94;5052763;28;20030;-69
2021/10/07 01:46:51;;;;;;;15.95;5.32;;;;;;;9.42;91.97;102380.44;5034877;28;20095;-69
2021/10/07 01:49:16;;;;;;;15.18;5.10;;;;;;;9.51;91.74;102374.44;5052733;28;20029;-69
2021/10/07 01:51:42;;;;;;;64.90;6.18;;;;;;;9.46;91.84;102374.84;5052613;28;20091;-68
2021/10/07 01:54:07;;;;;;;43.53;6.40;;;;;;;9.49;91.70;102387.50;5034591;28;20037;-68
2021/10/07 01:56:32;;;;;;;43.33;6.20;;;;;;;9.51;91.29;102383.97;5056508;28;20430;-69
2021/10/07 01:58:58;;;;;;;63.95;6.45;;;;;;;9.44;91.14;102387.09;5056956;28;20028;-68
2021/10/07 02:01:24;;;;;;;49.63;6.38;;;;;;;9.42;91.34;102386.41;5056563;28;20044;-68
2021/10/07 02:03:49;;;;;;;84.57;7.30;;;;;;;9.36;91.16;102376.66;5056496;28;20025;-68
2021/10/07 02:06:14;;;;;;;84.97;7.43;;;;;;;9.46;92.26;102392.91;5056452;28;20036;-68
2021/10/07 02:08:40;;;;;;;51.75;5.95;;;;;;;9.46;92.07;102398.06;5038492;28;20141;-69
2021/10/07 02:11:05;;;;;;;19.67;6.40;;;;;;;9.41;91.31;102402.06;5056612;28;20025;-69
2021/10/07 02:13:31;;;;;;;20.88;6.40;;;;;;;9.41;91.51;102402.88;5056621;28;20021;-69
2021/10/07 02:15:58;;;;;;;12.60;5.80;;;;;;;9.48;91.68;102413.44;5056532;28;20044;-69
2021/10/07 02:18:23;;;;;;;13.20;5.30;;;;;;;9.43;90.16;102413.84;5056570;28;20033;-69
2021/10/07 02:20:49;;;;;;;16.55;5.85;;;;;;;9.36;90.67;102393.91;5056544;28;20029;-69
2021/10/07 02:23:14;;;;;;;12.70;5.55;;;;;;;9.56;90.93;102417.91;5038558;28;20462;-68
2021/10/07 02:25:39;;;;;;;14.30;5.57;;;;;;;9.62;90.32;102414.75;5057040;28;20032;-69
2021/10/07 02:28:04;;;;;;;9.85;4.97;;;;;;;9.53;90.21;102426.75;5056432;28;20036;-68
2021/10/07 02:30:30;;;;;;;14.85;5.30;;;;;;;9.39;90.27;102422.81;5056311;28;20028;-68
2021/10/07 02:32:55;;;;;;;13.68;5.20;;;;;;;9.32;90.81;102426.09;5056311;28;20025;-69
2021/10/07 02:35:20;;;;;;;13.93;5.32;;;;;;;9.36;91.37;102430.84;5056230;28;20072;-69
2021/10/07 02:37:47;;;;;;;12.60;5.88;;;;;;;9.37;91.01;102429.06;5056195;28;20036;-69
2021/10/07 02:40:14;;;;;;;12.30;5.15;;;;;;;9.39;90.49;102427.19;5056095;28;20077;-68
2021/10/07 02:42:39;;;;;;;16.38;5.40;;;;;;;9.38;90.58;102439.25;5055999;28;20032;-69
2021/10/07 02:45:07;;;;;;;10.98;4.80;;;;;;;9.33;90.56;102444.03;5055993;28;20380;-69
2021/10/07 02:47:33;;;;;;;22.25;6.57;;;;;;;9.40;91.32;102428.78;5038141;28;20031;-69
2021/10/07 02:49:58;;;;;;;13.50;5.10;;;;;;;9.39;90.36;102438.31;5055973;28;20025;-69
2021/10/07 02:52:24;;;;;;;9.88;5.25;;;;;;;9.36;90.25;102432.63;5056037;28;20059;-68
2021/10/07 02:54:49;;;;;;;7.57;5.10;;;;;;;9.32;90.41;102439.81;5055754;28;20041;-69
2021/10/07 02:57:14;;;;;;;6.95;4.63;;;;;;;9.34;90.22;102439.66;5037892;28;20032;-69
2021/10/07 02:59:39;;;;;;;8.90;5.00;;;;;;;9.19;89.58;102444.44;5055894;28;20064;-69
2021/10/07 03:02:05;;;;;;;10.77;4.95;;;;;;;9.11;90.52;102439.97;5055665;28;20090;-68
2021/10/07 03:04:30;;;;;;;14.05;5.47;;;;;;;9.06;91.17;102449.84;5037691;28;20039;-69
2021/10/07 03:06:55;;;;;;;10.57;5.47;;;;;;;9.10;91.04;102445.25;5036713;28;20060;-68
2021/10/07 03:09:20;;;;;;;8.70;5.00;;;;;;;9.12;90.89;102459.66;5055925;28;20033;-68
2021/10/07 03:11:46;;;;;;;9.43;5.07;;;;;;;9.12;90.44;102459.66;5055605;28;20021;-68
2021/10/07 03:14:11;;;;;;;13.32;5.43;;;;;;;9.16;90.75;102461.00;5055756;28;20024;-68
2021/10/07 03:16:36;;;;;;;12.63;5.40;;;;;;;9.19;90.00;102465.06;5055448;28;20028;-68
2021/10/07 03:19:02;;;;;;;13.32;5.38;;;;;;;9.21;90.51;102465.75;5037551;28;20120;-68
2021/10/07 03:21:27;;;;;;;12.30;5.35;;;;;;;9.20;90.41;102467.50;5037487;28;20472;-68
2021/10/07 03:23:52;;;;;;;11.43;5.25;;;;;;;9.08;90.25;102465.22;5055295;28;20035;-68
2021/10/07 03:26:18;;;;;;;16.83;5.95;;;;;;;9.10;90.95;102468.47;5037334;28;20119;-68
2021/10/07 03:28:43;;;;;;;14.30;6.22;;;;;;;9.03;91.48;102455.28;5055227;28;20029;-68
2021/10/07 03:31:08;;;;;;;12.18;5.95;;;;;;;9.06;90.28;102470.50;5055212;28;20068;-69
2021/10/07 03:33:33;;;;;;;13.20;6.22;;;;;;;9.01;90.69;102475.25;5037315;28;20021;-68
2021/10/07 03:35:59;;;;;;;21.05;8.15;;;;;;;9.04;91.86;102482.72;5037200;28;20178;-68
2021/10/07 03:38:25;;;;;;;19.23;7.65;;;;;;;9.05;91.45;102468.88;5037099;28;20033;-68
2021/10/07 03:40:51;;;;;;;19.08;6.93;;;;;;;9.09;90.10;102483.16;5055082;28;20028;-68
2021/10/07 03:43:16;;;;;;;24.05;6.78;;;;;;;8.98;89.93;102496.97;5037041;28;20375;-69
2021/10/07 03:45:41;;;;;;;21.95;6.78;;;;;;;8.89;89.73;102499.53;5054854;28;20377;-68
2021/10/07 03:48:06;;;;;;;44.78;6.70;;;;;;;8.81;89.96;102502.78;5054958;28;20102;-68
2021/10/07 03:50:32;;;;;;;128.80;7.95;;;;;;;8.64;89.90;102506.00;5055327;28;20031;-68
2021/10/07 03:52:57;;;;;;;66.22;7.00;;;;;;;8.49;90.91;102501.22;5036905;28;20383;-68
2021/10/07 03:55:22;;;;;;;71.95;7.55;;;;;;;8.50;91.25;102502.84;5036843;28;20045;-68
2021/10/07 03:57:47;;;;;;;153.63;7.57;;;;;;;8.38;91.56;102490.97;5054689;28;20082;-68
2021/10/07 04:00:13;;;;;;;213.90;9.65;;;;;;;8.39;92.24;102502.13;5055099;28;20107;-68
2021/10/07 04:02:38;;;;;;;205.60;8.48;;;;;;;8.43;92.89;102501.75;5054788;28;20025;-68
2021/10/07 04:05:05;;;;;;;247.27;12.23;;;;;;;8.51;93.14;102499.31;5054406;28;20040;-68
2021/10/07 04:07:30;;;;;;;223.70;11.05;;;;;;;8.58;93.38;102505.56;5036601;28;20021;-68
2021/10/07 04:09:55;;;;;;;145.82;12.38;;;;;;;8.72;92.79;102508.75;5054755;28;20055;-68
2021/10/07 04:12:20;;;;;;;266.42;11.27;;;;;;;8.68;92.71;102515.09;5054557;28;20021;-68
2021/10/07 04:14:46;;;;;;;172.13;9.70;;;;;;;8.59;93.54;102519.28;5054343;28;20044;-69
2021/10/07 04:17:11;;;;;;;221.38;10.98;;;;;;;8.51;93.20;102522.50;5054334;28;20020;-68
2021/10/07 04:19:36;;;;;;;166.25;10.15;;;;;;;8.58;93.57;102517.66;5054188;28;20021;-68
2021/10/07 04:22:02;;;;;;;128.85;9.15;;;;;;;8.48;92.91;102522.75;5054787;28;20025;-68
2021/10/07 04:24:27;;;;;;;110.97;9.18;;;;;;;8.52;93.73;102521.56;5054449;28;20039;-68
2021/10/07 04:26:52;;;;;;;113.70;9.00;;;;;;;8.45;93.44;102520.44;5054101;28;20464;-68
2021/10/07 04:29:17;;;;;;;82.63;8.98;;;;;;;8.51;93.54;102530.22;5054328;28;20035;-68
2021/10/07 04:31:43;;;;;;;89.43;8.35;;;;;;;8.50;93.06;102531.19;5054311;28;20039;-69
2021/10/07 04:34:08;;;;;;;55.75;7.88;;;;;;;8.51;92.94;102532.78;5057737;28;20112;-70
2021/10/07 04:36:34;;;;;;;49.58;8.60;;;;;;;8.51;93.18;102532.78;5057218;28;20384;-69
2021/10/07 04:39:00;;;;;;;34.53;8.00;;;;;;;8.53;92.60;102541.22;5037018;28;20028;-69
2021/10/07 04:41:25;;;;;;;52.55;8.52;;;;;;;8.56;92.55;102537.56;5053855;28;20029;-69
2021/10/07 04:43:50;;;;;;;81.65;9.18;;;;;;;8.41;93.65;102539.69;5053966;28;20456;-69
2021/10/07 04:46:18;;;;;;;62.53;8.20;;;;;;;8.55;93.53;102541.91;5054386;28;20028;-69
2021/10/07 04:48:44;;;;;;;63.90;9.85;;;;;;;8.43;92.42;102539.53;5053810;28;20031;-69
2021/10/07 04:51:09;;;;;;;34.33;7.93;;;;;;;8.51;93.06;102550.84;5053661;28;20376;-69
2021/10/07 04:53:35;;;;;;;34.78;8.70;;;;;;;8.57;92.53;102547.75;5053565;28;20045;-69
2021/10/07 04:56:00;;;;;;;47.25;7.55;;;;;;;8.64;92.20;102553.19;5054132;28;20531;-68
2021/10/07 04:58:25;;;;;;;35.80;7.93;;;;;;;8.57;91.94;102558.06;5053582;28;20105;-69
2021/10/07 05:00:51;;;;;;;39.67;7.88;;;;;;;8.53;91.04;102553.28;5053546;28;20387;-68
2021/10/07 05:03:17;;;;;;;26.60;7.13;;;;;;;8.52;91.60;102555.06;5053549;28;20025;-69
2021/10/07 05:05:43;;;;;;;51.33;7.65;;;;;;;8.53;91.07;102561.03;5053938;28;20452;-69
2021/10/07 05:08:08;;;;;;;127.75;8.45;;;;;;;8.42;91.65;102558.53;5053788;28;20112;-68
2021/10/07 05:10:34;;;;;;;119.88;7.57;;;;;;;8.37;91.25;102566.59;5035590;28;20049;-69
2021/10/07 05:12:59;;;;;;;95.88;8.07;;;;;;;8.23;92.30;102554.91;5053480;28;20051;-68
2021/10/07 05:15:25;;;;;;;150.80;8.82;;;;;;;8.09;92.89;102563.78;5053361;28;20029;-69
2021/10/07 05:17:51;;;;;;;145.32;9.30;;;;;;;8.11;92.94;102567.03;5053447;28;20532;-69
2021/10/07 05:20:17;;;;;;;130.15;10.13;;;;;;;8.23;93.22;102580.66;5053226;28;20039;-69
2021/10/07 05:22:42;;;;;;;114.10;11.02;;;;;;;8.26;93.36;102577.03;5053418;28;20021;-69
2021/10/07 05:25:08;;;;;;;146.43;9.35;;;;;;;8.26;93.13;102574.44;5053496;28;20029;-69
2021/10/07 05:27:33;;;;;;;131.73;8.70;;;;;;;8.29;92.54;102582.72;5035401;28;20036;-69
2021/10/07 05:29:58;;;;;;;118.65;9.77;;;;;;;8.33;92.79;102585.84;5056439;28;20100;-68
2021/10/07 05:32:23;;;;;;;108.78;9.30;;;;;;;8.31;92.53;102582.59;5041846;28;20032;-69
2021/10/07 05:34:49;;;;;;;129.07;9.07;;;;;;;8.29;92.14;102594.78;5059668;28;20021;-69
2021/10/07 05:37:14;;;;;;;90.90;10.32;;;;;;;8.27;92.42;102592.31;5059843;28;20021;-68
2021/10/07 05:39:40;;;;;;;77.15;7.93;;;;;;;8.24;91.68;102591.78;5042165;28;20085;-68
2021/10/07 05:42:06;;;;;;;50.65;7.32;;;;;;;8.09;92.29;102584.38;5060144;28;20021;-69
2021/10/07 05:44:31;;;;;;;47.50;7.72;;;;;;;8.17;92.08;102588.91;5042168;28;20066;-69
2021/10/07 05:46:57;;;;;;;66.80;7.35;;;;;;;8.22;91.93;102596.22;5060779;28;20025;-70
2021/10/07 05:49:22;;;;;;;50.08;7.65;;;;;;;8.28;92.39;102593.13;5062986;28;20029;-67
2021/10/07 05:51:48;;;;;;;44.42;7.78;;;;;;;8.38;93.08;102595.78;5041705;28;20549;-67
2021/10/07 05:54:13;;;;;;;50.20;8.18;;;;;;;8.46;92.20;102606.28;5059586;28;20041;-67
2021/10/07 05:56:38;;;;;;;62.05;8.68;;;;;;;8.44;92.16;102597.88;5060733;28;20029;-67
2021/10/07 05:59:04;;;;;;;67.68;8.73;;;;;;;8.36;91.65;102593.31;5046373;28;20017;-68
2021/10/07 06:01:29;;;;;;;107.20;9.00;;;;;;;8.48;92.18;102607.78;5045809;28;20116;-69
2021/10/07 06:03:54;;;;;;;91.03;9.23;;;;;;;8.60;92.32;102611.09;5041924;28;20098;-68
2021/10/07 06:06:20;;;;;;;167.57;10.00;;;;;;;8.70;92.09;102616.31;5059579;28;20017;-68
2021/10/07 06:08:45;;;;;;;180.05;10.98;;;;;;;8.75;91.82;102609.81;5059852;28;20075;-68
2021/10/07 06:11:10;;;;;;;172.82;10.90;;;;;;;8.75;92.22;102614.16;5041793;28;20029;-69
2021/10/07 06:13:35;;;;;;;154.50;11.35;;;;;;;8.85;91.12;102620.16;5059946;28;20025;-68
2021/10/07 06:16:01;;;;;;;160.80;11.63;;;;;;;9.03;91.70;102625.50;5041415;28;20028;-68
2021/10/07 06:18:26;;;;;;;180.25;12.20;;;;;;;9.04;91.51;102627.16;5059634;28;20076;-68
2021/10/07 06:20:51;;;;;;;194.02;13.55;;;;;;;8.93;91.31;102612.59;5059340;28;20028;-68
2021/10/07 06:23:17;;;;;;;121.30;11.02;;;;;;;9.17;91.71;102632.06;5041422;28;20056;-68
2021/10/07 06:25:42;;;;;;;175.27;11.20;;;;;;;9.24;90.18;102633.16;5041499;28;20021;-68
2021/10/07 06:28:08;;;;;;;87.70;9.77;;;;;;;9.38;89.67;102637.94;5059715;28;20028;-68
2021/10/07 06:30:35;;;;;;;116.68;10.00;;;;;;;9.30;90.29;102642.16;5041340;28;20392;-68
2021/10/07 06:33:01;;;;;;;184.73;10.00;;;;;;;9.31;90.24;102644.56;5059246;28;20104;-68
2021/10/07 06:35:27;;;;;;;178.85;8.95;;;;;;;9.21;90.37;102646.34;5041382;28;20074;-68
2021/10/07 06:37:52;;;;;;;177.85;9.55;;;;;;;8.92;91.66;102647.06;5059227;28;20141;-68
2021/10/07 06:40:17;;;;;;;173.63;8.98;;;;;;;9.11;91.26;102651.44;5059566;28;20124;-68
2021/10/07 06:42:43;;;;;;;106.75;7.88;;;;;;;9.13;90.84;102646.97;5056093;28;20025;-69
2021/10/07 06:45:09;;;;;;;91.15;8.38;;;;;;;9.13;92.05;102652.13;5056398;28;20021;-68
2021/10/07 06:47:34;;;;;;;120.10;9.50;;;;;;;9.46;91.37;102660.50;5038042;28;20074;-69
2021/10/07 06:50:02;;;;;;;79.60;8.82;;;;;;;9.75;90.12;102651.97;5056035;28;20075;-68
2021/10/07 06:52:28;;;;;;;66.90;7.90;;;;;;;10.15;89.96;102656.97;5055886;28;20032;-68
2021/10/07 06:54:53;;;;;;;118.65;8.77;;;;;;;10.54;88.16;102664.69;5055679;28;20340;-68
2021/10/07 07:00:40;;;;;;;68.97;7.53;;;;;;;11.15;86.61;102669.31;5056117;28;20040;-69
2021/10/07 07:03:05;;;;;;;60.15;8.50;;;;;;;11.41;85.32;102673.81;5037793;28;20025;-69
2021/10/07 07:05:30;;;;;;;134.27;8.27;;;;;;;11.34;85.10;102671.00;5056148;28;20053;-69
2021/10/07 07:07:56;;;;;;;75.95;9.38;;;;;;;11.59;84.52;102679.81;5037716;28;20379;-69
2021/10/07 07:10:21;;;;;;;29.90;7.75;;;;;;;11.86;85.22;102676.38;5056111;28;20048;-69
2021/10/07 07:12:48;;;;;;;38.28;8.15;;;;;;;12.02;83.38;102683.47;5055747;28;20023;-70
2021/10/07 07:15:14;;;;;;;43.63;7.55;;;;;;;12.22;83.83;102680.69;5038249;28;20040;-66
2021/10/07 07:17:40;;;;;;;43.05;7.70;;;;;;;12.19;83.11;102684.41;5055997;28;20031;-67
2021/10/07 07:20:06;;;;;;;29.40;8.55;;;;;;;12.38;82.36;102680.81;5037794;28;20556;-69
2021/10/07 07:22:32;;;;;;;17.88;7.70;;;;;;;12.61;82.13;102676.75;5056867;28;20467;-67
2021/10/07 07:24:57;;;;;;;23.52;7.00;;;;;;;12.93;81.77;102680.47;5041054;28;20025;-68
2021/10/07 07:27:23;;;;;;;20.95;7.22;;;;;;;13.25;80.17;102690.16;5057799;28;20041;-69
2021/10/07 07:29:49;;;;;;;37.40;6.88;;;;;;;13.41;79.68;102688.59;5058346;28;20025;-70
2021/10/07 07:32:14;;;;;;;27.48;6.80;;;;;;;13.51;79.71;102689.25;5058783;28;20376;-69
2021/10/07 07:34:40;;;;;;;33.47;6.93;;;;;;;13.35;78.95;102694.41;5059120;28;20417;-71
2021/10/07 07:37:05;;;;;;;16.35;5.97;;;;;;;13.37;79.07;102700.25;5056851;28;20068;-68
2021/10/07 07:39:31;;;;;;;12.88;5.15;;;;;;;13.46;78.75;102709.69;5055025;28;20028;-69
2021/10/07 07:41:56;;;;;;;29.95;5.30;;;;;;;13.95;76.72;102712.34;5055061;28;20485;-69
2021/10/07 07:44:22;;;;;;;24.95;5.60;;;;;;;14.14;76.04;102706.84;5054854;28;20027;-69
2021/10/07 07:46:47;;;;;;;18.60;5.40;;;;;;;15.56;72.54;102710.44;5054961;28;20021;-69
2021/10/07 07:49:13;;;;;;;27.33;5.55;;;;;;;16.89;66.13;102713.38;5036948;28;20021;-70
2021/10/07 07:51:38;;;;;;;15.98;6.07;;;;;;;19.05;59.38;102713.94;5055092;28;20024;-70
2021/10/07 07:54:03;;;;;;;13.63;5.10;;;;;;;21.16;52.56;102714.78;5054139;28;20041;-70
2021/10/07 07:56:29;;;;;;;8.67;5.37;;;;;;;22.98;48.13;102721.69;5036971;28;20078;-71
2021/10/07 07:58:54;;;;;;;14.50;5.25;;;;;;;23.69;46.85;102722.69;5054787;28;20286;-72
2021/10/07 08:01:20;;;;;;;5.95;4.32;;;;;;;23.12;47.80;102725.75;5055238;28;20013;-71
2021/10/07 08:03:46;;;;;;;10.63;4.95;;;;;;;23.96;44.69;102725.72;5054553;28;20021;-71
2021/10/07 08:06:11;;;;;;;7.80;4.50;;;;;;;25.38;41.94;102734.13;5054466;28;20029;-70
2021/10/07 08:08:36;;;;;;;7.10;4.33;;;;;;;26.07;41.74;102744.47;5054506;28;20730;-71
2021/10/07 08:11:02;;;;;;;6.37;3.90;;;;;;;25.30;42.48;102742.44;5054761;28;20271;-71
2021/10/07 08:13:27;;;;;;;7.82;3.95;;;;;;;25.47;43.06;102734.53;5036487;28;20275;-70
2021/10/07 08:15:52;;;;;;;6.88;3.40;;;;;;;24.95;42.56;102738.88;5036446;28;20120;-71
2021/10/07 08:18:19;;;;;;;7.15;3.13;;;;;;;23.19;46.92;102737.03;5054596;28;20029;-71
2021/10/07 08:20:45;;;;;;;4.10;2.75;;;;;;;26.03;40.70;102738.81;5054252;28;20036;-72
2021/10/07 08:23:13;;;;;;;6.10;2.10;;;;;;;25.13;42.33;102737.88;5054221;28;20029;-72
2021/10/07 08:25:41;;;;;;;5.03;2.00;;;;;;;23.86;44.02;102726.28;5054109;28;20107;-72
2021/10/07 08:28:08;;;;;;;7.75;1.80;;;;;;;24.44;42.31;102745.00;5054312;28;20426;-72
2021/10/07 08:30:34;;;;;;;5.03;1.50;;;;;;;25.43;40.96;102745.59;5054099;28;20021;-72
2021/10/07 08:32:59;;;;;;;5.72;1.83;;;;;;;25.10;41.72;102738.34;5036137;28;20399;-71
2021/10/07 08:35:24;;;;;;;6.27;1.90;;;;;;;26.35;38.48;102738.19;5054662;28;20151;-71
2021/10/07 08:41:13;;;;;;;3.83;1.55;;;;;;;26.76;38.66;102744.81;5053862;28;20266;-71
2021/10/07 08:43:40;;;;;;;7.05;1.70;;;;;;;27.43;37.39;102745.47;5053749;28;20138;-71
2021/10/07 08:46:10;;;;;;;8.52;1.65;;;;;;;28.63;33.73;102744.03;5053849;28;20431;-71
2021/10/07 08:48:36;;;;;;;4.03;1.50;;;;;;;29.40;33.69;102739.66;5035959;28;20111;-72
2021/10/07 08:51:01;;;;;;;2.65;1.38;;;;;;;30.14;31.58;102749.66;5053725;28;20510;-70
2021/10/07 08:53:27;;;;;;;4.55;1.60;;;;;;;27.67;35.86;102740.59;5053550;28;20049;-70
2021/10/07 08:55:52;;;;;;;5.82;1.60;;;;;;;28.57;33.58;102740.59;5054254;28;20104;-70
2021/10/07 08:58:17;;;;;;;6.13;1.90;;;;;;;29.74;32.15;102739.91;5053578;28;20112;-71
2021/10/07 09:00:43;;;;;;;5.78;1.63;;;;;;;29.35;33.05;102747.66;5054190;28;20728;-71
2021/10/07 09:03:20;;;;;;;3.33;1.60;;;;;;;26.38;37.53;102743.00;5053625;28;20029;-71
2021/10/07 09:05:45;;;;;;;2.85;1.25;;;;;;;29.51;32.19;102748.44;5052803;28;20031;-71
2021/10/07 09:08:14;;;;;;;3.95;1.48;;;;;;;26.33;37.63;102756.19;5054081;28;20017;-72
2021/10/07 09:10:56;;;;;;;4.40;1.58;;;;;;;27.83;35.71;102747.66;5054153;28;20028;-70
2021/10/07 09:13:28;;;;;;;5.13;1.50;;;;;;;29.40;32.60;102750.31;5035589;28;20021;-71
2021/10/07 09:15:56;;;;;;;6.47;2.10;;;;;;;29.65;32.13;102752.19;5054000;28;20506;-67
2021/10/07 09:18:23;;;;;;;5.95;1.67;;;;;;;29.94;31.43;102747.06;5035942;28;20146;-70
2021/10/07 09:20:51;;;;;;;4.43;1.35;;;;;;;27.06;36.70;102750.69;5053373;28;20035;-70
2021/10/07 09:23:31;;;;;;;3.45;1.50;;;;;;;31.58;30.16;102748.81;5053318;28;20398;-71
2021/10/07 09:26:09;;;;;;;4.63;1.30;;;;;;;28.16;35.36;102742.25;5036020;28;20549;-71
2021/10/07 09:28:57;;;;;;;3.83;1.35;;;;;;;28.89;33.54;102739.63;5053297;28;20024;-70
2021/10/07 09:31:24;;;;;;;5.43;1.30;;;;;;;31.02;30.49;102740.16;5053297;28;20368;-70
2021/10/07 09:33:53;;;;;;;5.43;1.63;;;;;;;31.80;28.67;102749.09;5053263;28;20479;-70
2021/10/07 09:36:19;;;;;;;5.85;1.67;;;;;;;28.24;34.45;102741.75;5053206;28;20108;-69
2021/10/07 09:38:48;;;;;;;7.22;1.85;;;;;;;29.70;32.55;102735.41;5053233;28;20024;-69
2021/10/07 09:41:20;;;;;;;5.72;1.70;;;;;;;29.93;32.11;102742.00;5053171;28;20017;-69
2021/10/07 09:43:55;;;;;;;6.68;1.50;;;;;;;29.95;31.70;102745.19;5053692;28;20025;-69
2021/10/07 09:46:41;;;;;;;4.95;1.60;;;;;;;28.04;35.30;102742.44;5035216;28;20017;-68
2021/10/07 09:49:17;;;;;;;6.40;1.58;;;;;;;30.27;31.93;102736.88;5053349;28;20036;-66
2021/10/07 09:51:47;;;;;;;3.80;1.30;;;;;;;27.32;36.97;102754.41;5053148;28;20472;-67
2021/10/07 09:54:20;;;;;;;4.93;1.40;;;;;;;25.11;40.94;102747.09;5052869;28;20048;-68
2021/10/07 09:56:55;;;;;;;6.95;1.70;;;;;;;21.74;50.41;102745.41;5035112;28;20029;-69
2021/10/07 09:59:23;;;;;;;5.15;1.80;;;;;;;25.68;41.68;102752.31;5053007;28;20021;-70
2021/10/07 10:01:48;;;;;;;6.00;1.52;;;;;;;21.76;49.76;102747.81;5053256;28;20044;-69
2021/10/07 10:04:14;;;;;;;6.80;1.60;;;;;;;19.31;57.88;102752.53;5035810;28;20021;-69
2021/10/07 10:06:39;;;;;;;4.68;1.88;;;;;;;18.96;58.25;102757.00;5035164;28;20100;-69
2021/10/07 10:09:06;;;;;;;12.95;1.77;;;;;;;19.13;59.46;102759.13;5035382;28;20380;-70
2021/10/07 10:11:31;;;;;;;5.22;1.60;;;;;;;18.44;60.80;102762.56;5035024;28;20025;-70
2021/10/07 10:13:57;;;;;;;4.85;1.48;;;;;;;18.64;60.12;102761.84;5035082;28;20028;-69
2021/10/07 10:16:24;;;;;;;3.58;1.50;;;;;;;18.07;60.95;102742.75;5038221;28;20051;-69
2021/10/07 10:18:57;;;;;;;5.53;1.70;;;;;;;18.83;60.92;102761.19;5042551;28;20543;-70
2021/10/07 10:21:23;;;;;;;;;;;;;;;20.61;56.71;102751.19;5057608;28;20021;-70
2021/10/07 10:23:48;;;;;;;5.85;1.42;;;;;;;20.84;53.69;102760.44;5056548;28;19912;-71
2021/10/07 10:26:14;;;;;;;7.50;1.60;;;;;;;21.14;54.28;102758.06;5056624;28;20100;-70
2021/10/07 10:28:46;;;;;;;5.03;1.20;;;;;;;20.03;55.83;102756.31;5038476;28;20079;-69
2021/10/07 10:31:36;;;;;;;6.23;1.50;;;;;;;19.00;59.55;102761.69;5038576;28;20029;-68
2021/10/07 10:34:13;;;;;;;5.50;1.50;;;;;;;19.19;58.92;102761.94;5056649;28;20036;-69
2021/10/07 10:36:43;;;;;;;5.50;1.70;;;;;;;19.11;58.82;102763.75;5056693;28;20091;-69
2021/10/07 10:39:25;;;;;;;7.65;1.40;;;;;;;20.49;56.46;102758.06;5056360;28;20033;-69
2021/10/07 10:42:14;;;;;;;9.45;1.60;;;;;;;20.89;54.90;102756.16;5056539;28;20029;-69
2021/10/07 10:44:48;;;;;;;5.68;1.70;;;;;;;21.42;52.47;102762.22;5056898;28;20534;-69
2021/10/07 10:47:40;;;;;;;4.05;1.45;;;;;;;21.26;52.12;102764.31;5056468;28;20380;-69
2021/10/07 10:50:14;;;;;;;5.07;1.30;;;;;;;20.83;53.37;102766.69;5038454;28;20053;-69
2021/10/07 10:52:45;;;;;;;11.15;2.00;;;;;;;21.62;52.58;102768.97;5056150;28;20036;-69
2021/10/07 10:55:17;;;;;;;6.65;1.35;;;;;;;20.20;55.15;102773.25;5055999;28;20037;-69
2021/10/07 10:57:49;;;;;;;8.13;1.90;;;;;;;20.03;57.74;102775.47;5056025;28;20382;-69
2021/10/07 11:00:45;;;;;;;5.72;1.48;;;;;;;19.95;58.35;102780.13;5056048;28;20027;-69
2021/10/07 11:03:10;;;;;;;7.07;1.77;;;;;;;19.71;59.48;102784.09;5039001;28;20025;-70
2021/10/07 11:05:41;;;;;;;6.53;1.92;;;;;;;19.34;59.55;102788.84;5038601;28;20021;-70
2021/10/07 11:08:09;;;;;;;6.28;1.80;;;;;;;19.27;59.70;102788.78;5055820;28;20032;-70
2021/10/07 11:10:44;;;;;;;6.80;1.70;;;;;;;20.19;59.88;102783.94;5037987;28;20024;-69
2021/10/07 11:13:24;;;;;;;7.60;1.83;;;;;;;20.95;56.15;102786.06;5037781;28;20040;-69
2021/10/07 11:15:58;;;;;;;9.40;1.83;;;;;;;20.57;54.64;102784.16;5037829;28;20025;-70
2021/10/07 11:18:28;;;;;;;8.57;1.60;;;;;;;20.72;54.80;102787.34;5056118;28;20033;-69
2021/10/07 11:24:15;;;;;;;5.25;1.50;;;;;;;20.07;55.54;102791.63;5055754;28;20043;-69
2021/10/07 11:26:40;;;;;;;4.22;1.25;;;;;;;20.30;54.49;102791.22;5055157;28;20024;-70
2021/10/07 11:29:08;;;;;;;6.75;2.22;;;;;;;19.30;57.04;102796.25;5037367;28;20135;-69
2021/10/07 11:31:33;;;;;;;5.90;1.70;;;;;;;18.81;58.30;102784.16;5055404;28;20029;-70
2021/10/07 11:34:00;;;;;;;5.40;1.63;;;;;;;18.91;59.21;102797.72;5056203;28;20075;-69
2021/10/07 11:36:27;;;;;;;5.30;1.60;;;;;;;20.96;55.53;102792.94;5055332;28;20029;-69